New Dawn — WDB9910 — position and weather

sailwx.info

Track history (hours):
 
Tides and Currents Weather Stations Pressure Air Temp Water Temp Dewpoint Dewpoint Depression Visibility Wind Speed Wind Dir Waves Ship Positions

New Dawn

Owner: American River Transportation Company, St Louis, MO. More information available from US FCC via Universal Licensing System and Coast Guard Vessel Documentation Center.

Last reported at 2017-Sep-16 05:08 UTC. Time now 2017-Nov-21 06:06 UTC.
Position N 38°52' W 090°09'.
Warning: this ship's position is months out of date.

; draft 2.7 m.

Type: Towing. MMSI: 366984950.

Date/timePositionNaut miles runAvg speedWind from/ knotsBaromVisibWave heightAir tempDewpointWater temp
2017-Sep-16 05:08N 38°52' W 090°09'0 0.0
2017-Sep-16 04:57N 38°52' W 090°09'1 2.3
2017-Sep-16 04:24N 38°53' W 090°11'3 5.1
2017-Sep-16 03:45N 38°55' W 090°14'2 4.8
2017-Sep-16 03:21N 38°55' W 090°17'2 5.4
2017-Sep-16 03:00N 38°55' W 090°19'3 5.5
2017-Sep-16 02:30N 38°57' W 090°22'3 5.3
2017-Sep-16 02:00N 38°58' W 090°25'2 4.8
2017-Sep-16 01:30N 38°57' W 090°28'2 4.9
2017-Sep-16 01:00N 38°55' W 090°30'3 5.1
2017-Sep-16 00:26N 38°53' W 090°32'  
2017-Sep-08 12:57N 38°52' W 090°34'2 4.4
2017-Sep-08 12:30N 38°53' W 090°32'2 4.5
2017-Sep-08 12:00N 38°55' W 090°30'2 4.2
2017-Sep-08 11:30N 38°57' W 090°29'2 4.2
2017-Sep-08 11:00N 38°58' W 090°26'2 4.4
2017-Sep-08 10:30N 38°58' W 090°23'2 4.7
2017-Sep-08 10:00N 38°56' W 090°21'3 4.9
2017-Sep-08 09:30N 38°55' W 090°18'3 6.1
2017-Sep-08 09:00N 38°55' W 090°14'3 5.7
2017-Sep-08 08:30N 38°53' W 090°11'2 1.5
2017-Sep-08 07:04N 38°52' W 090°09'0 0.9
2017-Sep-08 06:43N 38°52' W 090°08'0 0.2
2017-Sep-08 06:24N 38°52' W 090°08'0 0.0
2017-Sep-08 06:00N 38°52' W 090°08'0 0.0
2017-Sep-08 05:30N 38°52' W 090°08'1 1.2
2017-Sep-08 04:59N 38°51' W 090°08'2 3.1
2017-Sep-08 04:30N 38°50' W 090°06'3 0.1
2017-Sep-07 02:49N 38°52' W 090°09'0 0.2
2017-Sep-07 02:30N 38°52' W 090°09'1 2.5
2017-Sep-07 01:56N 38°53' W 090°11'2 3.8
2017-Sep-07 01:30N 38°54' W 090°13'2 3.6
2017-Sep-07 00:58N 38°55' W 090°14'2 4.7
2017-Sep-07 00:30N 38°55' W 090°17'2 5.0
2017-Sep-07 00:00N 38°56' W 090°20'3 5.5
2017-Sep-06 23:30N 38°58' W 090°23'3 5.1
2017-Sep-06 23:00N 38°57' W 090°27'2 4.8
2017-Sep-06 22:30N 38°56' W 090°29'3 5.0
2017-Sep-06 21:50N 38°53' W 090°32'2 5.0
2017-Sep-06 21:30N 38°52' W 090°33'  
Track history (hours):
 
Tides and Currents Weather Stations Pressure Air Temp Water Temp Dewpoint Dewpoint Depression Visibility Wind Speed Wind Dir Waves Ship Positions

New Dawn

Owner: American River Transportation Company, St Louis, MO. More information available from US FCC via Universal Licensing System and Coast Guard Vessel Documentation Center.

Last reported at 2017-Sep-16 05:08 UTC. Time now 2017-Nov-21 06:06 UTC.
Position N 38°52' W 090°09'.
Warning: this ship's position is months out of date.

; draft 2.7 m.

Type: Towing. MMSI: 366984950.

Date/timePositionNaut miles runAvg speedWind from/ knotsBaromVisibWave heightAir tempDewpointWater temp
2017-Sep-16 05:08N 38°52' W 090°09'0 0.0
2017-Sep-16 04:57N 38°52' W 090°09'1 2.3
2017-Sep-16 04:24N 38°53' W 090°11'3 5.1
2017-Sep-16 03:45N 38°55' W 090°14'2 4.8
2017-Sep-16 03:21N 38°55' W 090°17'2 5.4
2017-Sep-16 03:00N 38°55' W 090°19'3 5.5
2017-Sep-16 02:30N 38°57' W 090°22'3 5.3
2017-Sep-16 02:00N 38°58' W 090°25'2 4.8
2017-Sep-16 01:30N 38°57' W 090°28'2 4.9
2017-Sep-16 01:00N 38°55' W 090°30'3 5.1
2017-Sep-16 00:26N 38°53' W 090°32'  
2017-Sep-08 12:57N 38°52' W 090°34'2 4.4
2017-Sep-08 12:30N 38°53' W 090°32'2 4.5
2017-Sep-08 12:00N 38°55' W 090°30'2 4.2
2017-Sep-08 11:30N 38°57' W 090°29'2 4.2
2017-Sep-08 11:00N 38°58' W 090°26'2 4.4
2017-Sep-08 10:30N 38°58' W 090°23'2 4.7
2017-Sep-08 10:00N 38°56' W 090°21'3 4.9
2017-Sep-08 09:30N 38°55' W 090°18'3 6.1
2017-Sep-08 09:00N 38°55' W 090°14'3 5.7
2017-Sep-08 08:30N 38°53' W 090°11'2 1.5
2017-Sep-08 07:04N 38°52' W 090°09'0 0.9
2017-Sep-08 06:43N 38°52' W 090°08'0 0.2
2017-Sep-08 06:24N 38°52' W 090°08'0 0.0
2017-Sep-08 06:00N 38°52' W 090°08'0 0.0
2017-Sep-08 05:30N 38°52' W 090°08'1 1.2
2017-Sep-08 04:59N 38°51' W 090°08'2 3.1
2017-Sep-08 04:30N 38°50' W 090°06'3 0.1
2017-Sep-07 02:49N 38°52' W 090°09'0 0.2
2017-Sep-07 02:30N 38°52' W 090°09'1 2.5
2017-Sep-07 01:56N 38°53' W 090°11'2 3.8
2017-Sep-07 01:30N 38°54' W 090°13'2 3.6
2017-Sep-07 00:58N 38°55' W 090°14'2 4.7
2017-Sep-07 00:30N 38°55' W 090°17'2 5.0
2017-Sep-07 00:00N 38°56' W 090°20'3 5.5
2017-Sep-06 23:30N 38°58' W 090°23'3 5.1
2017-Sep-06 23:00N 38°57' W 090°27'2 4.8
2017-Sep-06 22:30N 38°56' W 090°29'3 5.0
2017-Sep-06 21:50N 38°53' W 090°32'2 5.0
2017-Sep-06 21:30N 38°52' W 090°33'  

Dump ship's entire track history